createdAt,value
2019-03-31T00:00:34.340Z,18.03
2019-03-31T00:03:03.807Z,16.93
2019-03-31T00:05:33.108Z,17.40
2019-03-31T00:08:02.423Z,18.33
2019-03-31T00:10:31.720Z,17.47
2019-03-31T00:13:01.031Z,16.73
2019-03-31T00:15:30.327Z,17.67
2019-03-31T00:17:59.630Z,18.37
2019-03-31T00:20:29.752Z,17.40
2019-03-31T00:22:59.056Z,16.53
2019-03-31T00:25:29.331Z,16.83
2019-03-31T00:27:58.800Z,17.80
2019-03-31T00:30:28.139Z,17.10
2019-03-31T00:32:57.431Z,16.87
2019-03-31T00:35:26.736Z,15.93
2019-03-31T00:37:56.043Z,17.57
2019-03-31T00:40:25.387Z,17.20
2019-03-31T00:42:55.347Z,17.83
2019-03-31T00:45:25.624Z,17.47
2019-03-31T00:47:54.928Z,17.87
2019-03-31T00:50:24.229Z,16.97
2019-03-31T00:52:53.524Z,16.33
2019-03-31T00:55:22.843Z,15.00
2019-03-31T00:57:52.183Z,15.47
2019-03-31T01:00:41.352Z,15.60
2019-03-31T01:03:12.375Z,15.63
2019-03-31T01:05:43.127Z,16.73
2019-03-31T01:08:13.268Z,16.30
2019-03-31T01:10:43.274Z,17.57
2019-03-31T01:13:13.050Z,16.90
2019-03-31T01:15:43.036Z,17.53
2019-03-31T01:18:12.688Z,17.20
2019-03-31T01:20:43.339Z,16.23
2019-03-31T01:23:12.727Z,16.43
2019-03-31T01:25:42.047Z,16.60
2019-03-31T01:28:12.314Z,16.83
2019-03-31T01:30:42.823Z,15.87
2019-03-31T01:33:12.127Z,15.97
2019-03-31T01:35:42.053Z,15.97
2019-03-31T01:38:11.349Z,16.57
2019-03-31T01:40:40.656Z,15.80
2019-03-31T01:43:10.046Z,17.27
2019-03-31T01:45:39.354Z,16.10
2019-03-31T01:48:08.658Z,15.87
2019-03-31T01:50:37.985Z,16.27
2019-03-31T01:53:07.293Z,15.37
2019-03-31T01:55:36.596Z,15.43
2019-03-31T01:58:07.230Z,15.47
2019-03-31T02:00:47.506Z,15.90
2019-03-31T02:03:17.238Z,16.13
2019-03-31T02:05:46.545Z,15.33
2019-03-31T02:08:15.854Z,15.03
2019-03-31T02:10:45.185Z,16.07
2019-03-31T02:13:14.485Z,15.70
2019-03-31T02:15:44.434Z,16.43
2019-03-31T02:18:13.741Z,15.73
2019-03-31T02:20:44.941Z,16.00
2019-03-31T02:23:14.250Z,16.87
2019-03-31T02:25:43.564Z,16.03
2019-03-31T02:28:12.874Z,16.87
2019-03-31T02:30:42.175Z,15.83
2019-03-31T02:33:12.275Z,15.50
2019-03-31T02:35:41.751Z,15.73
2019-03-31T02:38:11.062Z,14.47
2019-03-31T02:40:40.450Z,16.33
2019-03-31T02:43:09.812Z,15.53
2019-03-31T02:45:39.142Z,17.10
2019-03-31T02:48:08.444Z,17.43
2019-03-31T02:50:40.930Z,16.30
2019-03-31T02:53:10.409Z,16.53
2019-03-31T02:55:39.994Z,16.63
2019-03-31T02:58:09.613Z,15.70
2019-03-31T03:00:38.986Z,15.77
2019-03-31T03:03:08.377Z,15.20
2019-03-31T03:05:40.795Z,17.47
2019-03-31T03:08:14.023Z,19.97
2019-03-31T03:10:44.135Z,19.90
2019-03-31T03:13:14.727Z,17.20
2019-03-31T03:16:03.464Z,19.23
2019-03-31T03:18:33.148Z,17.40
2019-03-31T03:21:03.799Z,17.43
2019-03-31T03:23:33.115Z,18.00
2019-03-31T03:26:02.415Z,17.87
2019-03-31T03:28:31.890Z,18.37
2019-03-31T03:31:01.326Z,18.37
2019-03-31T03:33:30.795Z,17.13
2019-03-31T03:36:00.192Z,18.07
2019-03-31T03:38:29.571Z,16.83
2019-03-31T03:40:58.880Z,17.60
2019-03-31T03:43:28.329Z,15.53
2019-03-31T03:45:57.629Z,16.90
2019-03-31T03:48:26.946Z,15.67
2019-03-31T03:50:56.323Z,15.60
2019-03-31T03:53:25.737Z,15.57
2019-03-31T03:55:55.174Z,15.40
2019-03-31T03:58:24.553Z,14.53
2019-03-31T04:00:53.877Z,15.83
2019-03-31T04:03:30.690Z,17.03
2019-03-31T04:05:54.204Z,17.60
2019-03-31T04:08:23.528Z,18.23
2019-03-31T04:10:55.914Z,17.60
2019-03-31T04:13:25.213Z,17.80
2019-03-31T04:15:55.851Z,17.30
2019-03-31T04:18:25.160Z,18.53
2019-03-31T04:20:54.477Z,18.27
2019-03-31T04:23:24.615Z,16.97
2019-03-31T04:25:53.987Z,17.40
2019-03-31T04:28:23.290Z,17.57
2019-03-31T04:30:52.626Z,18.77
2019-03-31T04:33:21.935Z,18.03
2019-03-31T04:35:51.247Z,18.87
2019-03-31T04:38:20.571Z,18.83
2019-03-31T04:40:49.883Z,16.40
2019-03-31T04:43:19.262Z,17.20
2019-03-31T04:45:48.586Z,17.77
2019-03-31T04:48:17.898Z,17.87
2019-03-31T04:50:47.204Z,18.23
2019-03-31T04:53:16.518Z,19.63
2019-03-31T04:55:45.826Z,18.40
2019-03-31T04:58:15.144Z,19.37
2019-03-31T05:00:44.461Z,18.97
2019-03-31T05:03:13.773Z,19.83
2019-03-31T05:05:43.077Z,20.57
2019-03-31T05:08:12.378Z,21.17
2019-03-31T05:10:43.097Z,20.87
2019-03-31T05:13:12.411Z,18.73
2019-03-31T05:15:41.712Z,19.83
2019-03-31T05:18:11.025Z,19.97
2019-03-31T05:20:40.497Z,20.23
2019-03-31T05:23:09.812Z,19.27
2019-03-31T05:25:39.957Z,20.20
2019-03-31T05:28:09.271Z,19.80
2019-03-31T05:30:38.584Z,19.57
2019-03-31T05:33:08.964Z,20.13
2019-03-31T05:35:38.296Z,17.30
2019-03-31T05:38:07.605Z,18.73
2019-03-31T05:40:36.908Z,20.73
2019-03-31T05:43:06.225Z,21.10
2019-03-31T05:45:35.537Z,20.93
2019-03-31T05:48:05.017Z,22.47
2019-03-31T05:50:34.329Z,24.47
2019-03-31T05:53:03.644Z,26.00
2019-03-31T05:55:32.957Z,25.43
2019-03-31T05:58:02.265Z,26.57
2019-03-31T06:00:42.438Z,27.67
2019-03-31T06:03:12.228Z,24.40
2019-03-31T06:05:41.546Z,26.30
2019-03-31T06:08:10.845Z,23.30
2019-03-31T06:10:40.162Z,22.63
2019-03-31T06:13:09.474Z,22.57
2019-03-31T06:15:38.772Z,21.40
2019-03-31T06:18:08.083Z,25.97
2019-03-31T06:20:37.561Z,25.63
2019-03-31T06:23:06.865Z,25.20
2019-03-31T06:25:36.193Z,25.30
2019-03-31T06:28:05.857Z,26.47
2019-03-31T06:30:35.171Z,35.13
2019-03-31T06:33:04.659Z,36.03
2019-03-31T06:35:33.970Z,35.83
2019-03-31T06:38:03.278Z,36.43
2019-03-31T06:40:32.583Z,34.90
2019-03-31T06:43:01.901Z,34.93
2019-03-31T06:45:31.201Z,32.73
2019-03-31T06:48:00.509Z,34.03
2019-03-31T06:50:29.837Z,35.70
2019-03-31T06:52:59.157Z,32.10
2019-03-31T06:55:28.458Z,33.50
2019-03-31T06:57:58.914Z,34.60
2019-03-31T07:00:28.225Z,34.90
2019-03-31T07:02:57.530Z,35.57
2019-03-31T07:05:26.848Z,33.57
2019-03-31T07:07:56.169Z,34.70
2019-03-31T07:10:25.469Z,32.90
2019-03-31T07:12:54.781Z,31.90
2019-03-31T07:15:24.098Z,30.23
2019-03-31T07:17:53.570Z,30.17
2019-03-31T07:20:22.898Z,31.67
2019-03-31T07:22:52.273Z,29.43
2019-03-31T07:25:21.588Z,29.83
2019-03-31T07:27:50.901Z,30.77
2019-03-31T07:30:21.662Z,30.77
2019-03-31T07:32:50.969Z,29.57
2019-03-31T07:35:20.280Z,31.67
2019-03-31T07:37:49.591Z,30.97
2019-03-31T07:40:21.824Z,31.30
2019-03-31T07:42:52.313Z,32.10
2019-03-31T07:45:21.873Z,32.67
2019-03-31T07:47:51.177Z,32.47
2019-03-31T07:50:20.650Z,32.70
2019-03-31T07:52:49.965Z,33.73
2019-03-31T07:55:19.446Z,33.70
2019-03-31T07:57:48.757Z,33.37
2019-03-31T08:00:22.436Z,33.60
2019-03-31T08:02:51.758Z,37.77
2019-03-31T08:05:32.469Z,33.60
2019-03-31T08:07:52.205Z,36.80
2019-03-31T08:10:21.971Z,34.43
2019-03-31T08:12:51.505Z,35.33
2019-03-31T08:15:20.842Z,35.50
2019-03-31T08:17:50.150Z,33.50
2019-03-31T08:20:20.092Z,30.73
2019-03-31T08:22:50.379Z,30.37
2019-03-31T08:25:19.801Z,30.50
2019-03-31T08:27:49.111Z,28.73
2019-03-31T08:30:19.065Z,20.70
2019-03-31T08:32:49.649Z,23.30
2019-03-31T08:35:19.158Z,21.03
2019-03-31T08:37:48.478Z,22.50
2019-03-31T08:40:18.553Z,21.43
2019-03-31T08:42:48.925Z,22.60
2019-03-31T08:45:18.372Z,20.97
2019-03-31T08:47:47.688Z,21.20
2019-03-31T08:50:17.168Z,22.40
2019-03-31T08:52:46.481Z,21.27
2019-03-31T08:55:15.868Z,20.67
2019-03-31T08:57:45.184Z,21.00
2019-03-31T09:00:19.743Z,20.07
2019-03-31T09:02:49.054Z,22.30
2019-03-31T09:05:18.616Z,20.77
2019-03-31T09:07:47.933Z,19.63
2019-03-31T09:10:17.413Z,20.67
2019-03-31T09:12:48.475Z,17.77
2019-03-31T09:15:17.745Z,16.90
2019-03-31T09:17:47.073Z,14.33
2019-03-31T09:20:16.616Z,13.07
2019-03-31T09:22:45.934Z,11.47
2019-03-31T09:25:15.251Z,12.80
2019-03-31T09:27:44.562Z,12.73
2019-03-31T09:30:15.925Z,13.53
2019-03-31T09:32:45.233Z,11.53
2019-03-31T09:35:15.869Z,10.77
2019-03-31T09:37:45.198Z,12.63
2019-03-31T09:40:16.228Z,10.30
2019-03-31T09:42:45.528Z,9.03
2019-03-31T09:45:14.906Z,8.07
2019-03-31T09:47:44.228Z,8.60
2019-03-31T09:50:17.210Z,8.90
2019-03-31T09:52:45.798Z,10.33
2019-03-31T09:55:15.173Z,9.67
2019-03-31T09:57:44.541Z,8.70
2019-03-31T10:00:16.697Z,8.80
2019-03-31T10:02:46.006Z,8.23
2019-03-31T10:05:15.601Z,7.87
2019-03-31T10:07:46.146Z,7.70
2019-03-31T10:10:30.833Z,8.00
2019-03-31T10:13:00.677Z,6.80
2019-03-31T10:15:29.989Z,7.17
2019-03-31T10:17:59.297Z,7.67
2019-03-31T10:20:31.325Z,7.53
2019-03-31T10:22:59.627Z,7.30
2019-03-31T10:25:29.043Z,6.23
2019-03-31T10:27:58.417Z,6.17
2019-03-31T10:30:33.765Z,7.80
2019-03-31T10:33:05.020Z,7.40
2019-03-31T10:35:35.212Z,9.50
2019-03-31T10:38:06.113Z,8.00
2019-03-31T10:40:35.421Z,7.63
2019-03-31T10:43:04.807Z,5.93
2019-03-31T10:45:35.192Z,8.47
2019-03-31T10:48:19.166Z,6.60
2019-03-31T10:50:36.253Z,6.40
2019-03-31T10:53:05.734Z,6.50
2019-03-31T10:55:35.061Z,6.30
2019-03-31T10:58:04.572Z,7.00
2019-03-31T11:00:37.982Z,7.33
2019-03-31T11:03:07.974Z,7.23
2019-03-31T11:05:37.286Z,10.53
2019-03-31T11:08:07.443Z,11.47
2019-03-31T11:10:36.970Z,12.87
2019-03-31T11:13:06.472Z,8.80
2019-03-31T11:15:36.118Z,7.17
2019-03-31T11:18:05.426Z,8.00
2019-03-31T11:20:35.705Z,7.50
2019-03-31T11:23:21.817Z,7.17
2019-03-31T11:25:52.408Z,7.00
2019-03-31T11:28:21.713Z,6.87
2019-03-31T11:30:51.023Z,7.87
2019-03-31T11:33:20.346Z,7.50
2019-03-31T11:35:49.829Z,8.53
2019-03-31T11:38:19.132Z,7.30
2019-03-31T11:40:48.436Z,7.60
2019-03-31T11:43:18.757Z,7.77
2019-03-31T11:45:48.064Z,8.57
2019-03-31T11:48:17.378Z,8.00
2019-03-31T11:50:46.689Z,7.47
2019-03-31T11:53:16.073Z,7.23
2019-03-31T11:55:45.393Z,7.83
2019-03-31T11:58:14.697Z,7.23
2019-03-31T12:00:46.969Z,7.23
2019-03-31T12:03:17.337Z,8.00
2019-03-31T12:05:47.737Z,6.97
2019-03-31T12:08:17.897Z,7.20
2019-03-31T12:10:47.211Z,7.80
2019-03-31T12:13:17.493Z,7.43
2019-03-31T12:15:46.800Z,6.47
2019-03-31T12:18:17.300Z,6.30
2019-03-31T12:20:46.610Z,7.03
2019-03-31T12:23:15.937Z,7.13
2019-03-31T12:25:46.317Z,6.77
2019-03-31T12:28:15.781Z,6.07
2019-03-31T12:30:45.105Z,6.50
2019-03-31T12:33:14.458Z,6.30
2019-03-31T12:35:43.806Z,5.77
2019-03-31T12:38:14.205Z,6.93
2019-03-31T12:40:43.761Z,5.23
2019-03-31T12:43:13.077Z,7.03
2019-03-31T12:45:43.340Z,6.97
2019-03-31T12:48:12.998Z,6.50
2019-03-31T12:50:42.309Z,6.43
2019-03-31T12:53:11.617Z,6.53
2019-03-31T12:55:40.934Z,5.80
2019-03-31T12:58:10.251Z,6.17
2019-03-31T13:00:39.549Z,6.37
2019-03-31T13:03:08.883Z,7.00
2019-03-31T13:05:38.201Z,5.40
2019-03-31T13:08:07.521Z,5.50
2019-03-31T13:10:36.826Z,5.40
2019-03-31T13:13:06.320Z,5.07
2019-03-31T13:15:35.636Z,5.60
2019-03-31T13:18:05.673Z,5.17
2019-03-31T13:20:35.002Z,4.27
2019-03-31T13:23:05.282Z,4.70
2019-03-31T13:25:34.582Z,3.47
2019-03-31T13:28:05.773Z,4.17
2019-03-31T13:30:35.465Z,4.10
2019-03-31T13:33:04.766Z,3.40
2019-03-31T13:35:34.613Z,4.00
2019-03-31T13:38:10.834Z,3.20
2019-03-31T13:40:36.104Z,3.93
2019-03-31T13:43:06.448Z,3.43
2019-03-31T13:45:35.790Z,3.80
2019-03-31T13:48:05.163Z,3.70
2019-03-31T13:50:34.477Z,3.60
2019-03-31T13:53:03.790Z,3.67
2019-03-31T13:55:33.109Z,3.20
2019-03-31T13:58:03.478Z,3.67
2019-03-31T14:00:43.904Z,2.60
2019-03-31T14:03:13.277Z,3.63
2019-03-31T14:05:42.583Z,3.13
2019-03-31T14:08:24.957Z,3.20
2019-03-31T14:10:42.973Z,3.23
2019-03-31T14:13:13.433Z,3.00
2019-03-31T14:15:42.745Z,3.50
2019-03-31T14:18:12.046Z,2.73
2019-03-31T14:20:41.353Z,2.60
2019-03-31T14:23:10.659Z,3.00
2019-03-31T14:25:40.028Z,2.53
2019-03-31T14:28:09.330Z,2.80
2019-03-31T14:30:38.727Z,2.90
2019-03-31T14:33:08.097Z,2.53
2019-03-31T14:35:38.210Z,3.23
2019-03-31T14:38:07.915Z,3.57
2019-03-31T14:40:37.249Z,2.60
2019-03-31T14:43:07.441Z,2.70
2019-03-31T14:45:37.163Z,2.87
2019-03-31T14:48:06.739Z,2.93
2019-03-31T14:50:37.476Z,2.40
2019-03-31T14:53:06.857Z,2.40
2019-03-31T14:55:36.193Z,2.20
2019-03-31T14:58:07.991Z,2.60
2019-03-31T15:00:36.982Z,2.80
2019-03-31T15:03:06.657Z,2.40
2019-03-31T15:05:35.953Z,2.20
2019-03-31T15:08:06.630Z,3.10
2019-03-31T15:10:35.943Z,2.50
2019-03-31T15:13:05.419Z,2.80
2019-03-31T15:15:34.724Z,2.63
2019-03-31T15:18:04.306Z,2.17
2019-03-31T15:20:33.652Z,2.27
2019-03-31T15:23:02.963Z,2.53
2019-03-31T15:25:32.261Z,2.60
2019-03-31T15:28:01.637Z,2.70
2019-03-31T15:30:30.945Z,2.53
2019-03-31T15:33:00.469Z,2.60
2019-03-31T15:35:29.771Z,2.30
2019-03-31T15:37:59.082Z,2.23
2019-03-31T15:40:28.393Z,1.97
2019-03-31T15:42:58.266Z,1.87
2019-03-31T15:45:29.006Z,2.13
2019-03-31T15:47:58.334Z,2.20
2019-03-31T15:50:27.640Z,1.53
2019-03-31T15:52:57.020Z,1.50
2019-03-31T15:55:26.313Z,1.50
2019-03-31T15:57:55.638Z,1.30
2019-03-31T16:00:24.937Z,1.57
2019-03-31T16:02:54.322Z,1.20
2019-03-31T16:05:23.622Z,1.63
2019-03-31T16:07:52.933Z,1.37
2019-03-31T16:10:22.246Z,1.10
2019-03-31T16:12:51.553Z,1.30
2019-03-31T16:15:21.017Z,1.30
2019-03-31T16:17:50.402Z,1.17
2019-03-31T16:20:20.487Z,1.50
2019-03-31T16:22:53.043Z,1.63
2019-03-31T16:25:24.664Z,1.57
2019-03-31T16:27:53.969Z,1.70
2019-03-31T16:30:23.277Z,1.63
2019-03-31T16:32:52.594Z,2.30
2019-03-31T16:35:22.942Z,1.60
2019-03-31T16:37:52.262Z,2.10
2019-03-31T16:40:21.569Z,1.30
2019-03-31T16:42:50.877Z,1.40
2019-03-31T16:45:20.181Z,1.50
2019-03-31T16:47:50.965Z,1.60
2019-03-31T16:50:20.277Z,2.07
2019-03-31T16:52:52.454Z,1.73
2019-03-31T16:55:20.618Z,1.13
2019-03-31T16:57:49.997Z,1.57
2019-03-31T17:00:20.233Z,1.50
2019-03-31T17:02:49.630Z,1.67
2019-03-31T17:05:22.252Z,1.23
2019-03-31T17:07:50.037Z,1.63
2019-03-31T17:10:19.439Z,1.33
2019-03-31T17:12:48.765Z,1.60
2019-03-31T17:15:18.075Z,1.33
2019-03-31T17:17:48.351Z,1.53
2019-03-31T17:20:18.700Z,5.87
2019-03-31T17:22:48.174Z,4.67
2019-03-31T17:25:17.487Z,2.20
2019-03-31T17:27:46.795Z,1.57
2019-03-31T17:30:16.403Z,1.63
2019-03-31T17:32:45.701Z,1.80
2019-03-31T17:35:15.013Z,1.27
2019-03-31T17:37:44.317Z,1.40
2019-03-31T17:40:13.686Z,1.67
2019-03-31T17:42:43.004Z,1.60
2019-03-31T17:45:12.545Z,1.53
2019-03-31T17:47:41.849Z,1.60
2019-03-31T17:50:11.397Z,1.70
2019-03-31T17:52:40.706Z,1.90
2019-03-31T17:55:11.893Z,54.90
2019-03-31T17:57:42.697Z,2.20
2019-03-31T18:00:12.842Z,1.83
2019-03-31T18:02:42.143Z,1.30
2019-03-31T18:05:11.508Z,1.53
2019-03-31T18:07:40.815Z,2.00
2019-03-31T18:10:20.699Z,1.53
2019-03-31T18:12:41.630Z,1.33
2019-03-31T18:15:11.166Z,1.53
2019-03-31T18:17:40.541Z,2.10
2019-03-31T18:20:09.914Z,2.47
2019-03-31T18:22:39.229Z,2.00
2019-03-31T18:25:09.681Z,1.73
2019-03-31T18:27:39.757Z,1.77
2019-03-31T18:30:09.518Z,1.80
2019-03-31T18:32:38.828Z,1.70
2019-03-31T18:35:08.195Z,1.40
2019-03-31T18:37:37.496Z,35.27
2019-03-31T18:40:08.454Z,11.43
2019-03-31T18:42:37.817Z,16.50
2019-03-31T18:45:08.265Z,6.30
2019-03-31T18:47:37.569Z,3.73
2019-03-31T18:50:07.217Z,2.03
2019-03-31T18:52:37.408Z,1.83
2019-03-31T18:55:10.990Z,1.80
2019-03-31T18:57:44.342Z,2.20
2019-03-31T19:00:21.368Z,1.97
2019-03-31T19:03:10.649Z,1.67
2019-03-31T19:05:47.550Z,2.00
2019-03-31T19:08:28.733Z,2.30
2019-03-31T19:11:08.899Z,2.53
2019-03-31T19:13:56.500Z,2.37
2019-03-31T19:16:43.867Z,1.90
2019-03-31T19:19:23.837Z,1.90
2019-03-31T19:22:11.074Z,3.23
2019-03-31T19:24:49.180Z,2.17
2019-03-31T19:27:20.141Z,3.70
2019-03-31T19:29:54.067Z,2.10
2019-03-31T19:32:27.901Z,2.23
2019-03-31T19:35:04.753Z,2.80
2019-03-31T19:37:47.673Z,2.30
2019-03-31T19:40:24.603Z,1.80
2019-03-31T19:43:12.425Z,2.23
2019-03-31T19:45:43.369Z,2.20
2019-03-31T19:48:31.865Z,2.60
2019-03-31T19:51:11.961Z,2.10
2019-03-31T19:53:59.785Z,1.50
2019-03-31T19:56:36.679Z,2.10
2019-03-31T19:59:26.654Z,1.87
2019-03-31T20:02:03.325Z,2.00
2019-03-31T20:04:40.018Z,1.70
2019-03-31T20:07:13.865Z,1.80
2019-03-31T20:09:53.794Z,1.80
2019-03-31T20:12:41.250Z,1.90
2019-03-31T20:15:13.509Z,1.90
2019-03-31T20:18:00.790Z,2.30
2019-03-31T20:20:37.941Z,2.30
2019-03-31T20:23:08.889Z,2.00
2019-03-31T20:25:45.629Z,2.20
2019-03-31T20:28:16.597Z,1.77
2019-03-31T20:30:51.832Z,2.07
2019-03-31T20:33:22.773Z,1.93
2019-03-31T20:35:53.742Z,2.00
2019-03-31T20:38:41.009Z,1.83
2019-03-31T20:41:15.135Z,1.90
2019-03-31T20:43:56.842Z,2.30
2019-03-31T20:46:27.576Z,2.30
2019-03-31T20:48:56.876Z,2.57
2019-03-31T20:51:26.181Z,1.97
2019-03-31T20:53:56.867Z,1.50
2019-03-31T20:56:26.161Z,1.80
2019-03-31T20:58:55.527Z,1.13
2019-03-31T21:01:24.905Z,1.60
2019-03-31T21:03:54.208Z,1.83
2019-03-31T21:06:23.684Z,1.20
2019-03-31T21:08:53.012Z,1.33
2019-03-31T21:11:22.310Z,1.40
2019-03-31T21:13:51.634Z,1.50
2019-03-31T21:16:20.929Z,1.77
2019-03-31T21:18:50.233Z,1.53
2019-03-31T21:21:19.619Z,1.63
2019-03-31T21:23:49.022Z,1.77
2019-03-31T21:26:18.322Z,2.07
2019-03-31T21:28:48.532Z,1.30
2019-03-31T21:31:17.837Z,2.23
2019-03-31T21:33:47.132Z,1.10
2019-03-31T21:36:16.440Z,1.30
2019-03-31T21:38:45.737Z,1.40
2019-03-31T21:41:15.041Z,1.67
2019-03-31T21:43:44.345Z,1.40
2019-03-31T21:46:13.641Z,1.87
2019-03-31T21:48:43.010Z,1.37
2019-03-31T21:51:12.317Z,1.60
2019-03-31T21:53:41.621Z,1.50
2019-03-31T21:56:11.977Z,1.23
2019-03-31T21:58:41.288Z,1.50
2019-03-31T22:01:10.777Z,1.13
2019-03-31T22:03:40.368Z,1.70
2019-03-31T22:06:09.685Z,1.53
2019-03-31T22:08:39.217Z,1.60
2019-03-31T22:11:08.612Z,1.37
2019-03-31T22:13:37.912Z,1.37
2019-03-31T22:16:07.220Z,1.90
2019-03-31T22:18:36.632Z,1.40
2019-03-31T22:21:05.935Z,1.60
2019-03-31T22:23:35.240Z,1.20
2019-03-31T22:26:05.513Z,1.20
2019-03-31T22:28:34.865Z,1.07
2019-03-31T22:31:05.823Z,1.60
2019-03-31T22:33:35.124Z,1.23
2019-03-31T22:36:23.157Z,1.57
2019-03-31T22:38:53.598Z,1.03
2019-03-31T22:41:22.892Z,1.27
2019-03-31T22:43:53.433Z,1.13
2019-03-31T22:46:22.761Z,1.30
2019-03-31T22:48:52.100Z,0.70
2019-03-31T22:51:21.399Z,1.27
2019-03-31T22:53:50.701Z,1.07
2019-03-31T22:56:20.793Z,1.40
2019-03-31T22:58:50.102Z,1.30
2019-03-31T23:01:19.401Z,1.17
2019-03-31T23:03:48.705Z,1.27
2019-03-31T23:06:18.030Z,1.40
2019-03-31T23:08:47.343Z,2.10
2019-03-31T23:11:16.641Z,1.80
2019-03-31T23:13:45.937Z,2.17
2019-03-31T23:16:15.245Z,1.87
2019-03-31T23:18:45.978Z,1.63
2019-03-31T23:21:15.281Z,1.20
2019-03-31T23:23:44.585Z,1.50
2019-03-31T23:26:13.892Z,1.57
2019-03-31T23:28:48.920Z,1.23
2019-03-31T23:31:18.328Z,1.00
2019-03-31T23:33:47.657Z,1.33
2019-03-31T23:36:16.959Z,1.17
2019-03-31T23:38:46.256Z,1.30
2019-03-31T23:41:15.667Z,1.20
2019-03-31T23:43:45.042Z,1.23
2019-03-31T23:46:14.340Z,1.37
2019-03-31T23:48:43.647Z,0.70
2019-03-31T23:51:12.954Z,1.20
2019-03-31T23:53:42.579Z,1.30
2019-03-31T23:56:11.881Z,1.20
2019-03-31T23:58:42.253Z,1.17
